createdAt,value
2022-11-14T00:00:20.676Z,15.44
2022-11-14T00:03:28.842Z,15.46
2022-11-14T00:06:36.849Z,15.45
2022-11-14T00:09:44.781Z,15.46
2022-11-14T00:12:54.028Z,15.44
2022-11-14T00:16:01.986Z,15.40
2022-11-14T00:19:09.762Z,15.38
2022-11-14T00:22:17.723Z,15.29
2022-11-14T00:25:25.568Z,15.22
2022-11-14T00:28:34.537Z,15.13
2022-11-14T00:31:42.814Z,15.03
2022-11-14T00:34:50.990Z,14.98
2022-11-14T00:37:59.202Z,14.96
2022-11-14T00:41:07.847Z,14.95
2022-11-14T00:44:17.499Z,14.95
2022-11-14T00:47:25.321Z,14.93
2022-11-14T00:50:32.754Z,14.91
2022-11-14T00:53:41.023Z,14.87
2022-11-14T00:56:48.675Z,14.89
2022-11-14T00:59:58.064Z,14.84
2022-11-14T01:03:06.008Z,14.81
2022-11-14T01:06:14.656Z,14.80
2022-11-14T01:09:22.834Z,14.79
2022-11-14T01:12:30.417Z,14.81
2022-11-14T01:15:42.928Z,14.76
2022-11-14T01:18:50.991Z,14.78
2022-11-14T01:22:01.773Z,14.74
2022-11-14T01:25:13.256Z,14.65
2022-11-14T01:28:22.115Z,14.69
2022-11-14T01:31:31.701Z,14.57
2022-11-14T01:34:39.732Z,14.70
2022-11-14T01:37:47.944Z,14.57
2022-11-14T01:40:55.825Z,14.66
2022-11-14T01:44:03.585Z,14.67
2022-11-14T01:47:14.292Z,14.64
2022-11-14T01:50:22.367Z,14.66
2022-11-14T01:53:31.025Z,14.69
2022-11-14T01:56:44.429Z,14.71
2022-11-14T01:59:55.950Z,14.76
2022-11-14T02:03:05.474Z,14.80
2022-11-14T02:06:19.714Z,14.79
2022-11-14T02:09:29.724Z,14.85
2022-11-14T02:12:38.796Z,14.85
2022-11-14T02:15:46.573Z,14.90
2022-11-14T02:18:55.872Z,14.90
2022-11-14T02:22:05.116Z,14.90
2022-11-14T02:25:17.012Z,14.89
2022-11-14T02:28:25.168Z,14.93
2022-11-14T02:31:33.006Z,14.92
2022-11-14T02:34:41.116Z,14.94
2022-11-14T02:37:50.656Z,14.95
2022-11-14T02:41:00.322Z,14.93
2022-11-14T02:44:08.345Z,14.92
2022-11-14T02:47:16.353Z,14.92
2022-11-14T02:50:24.069Z,14.92
2022-11-14T02:53:33.464Z,14.93
2022-11-14T02:56:41.464Z,14.93
2022-11-14T02:59:49.483Z,14.92
2022-11-14T03:02:57.370Z,14.92
2022-11-14T03:06:06.930Z,14.91
2022-11-14T03:09:16.271Z,14.89
2022-11-14T03:12:24.519Z,14.85
2022-11-14T03:15:32.387Z,14.82
2022-11-14T03:18:40.621Z,14.84
2022-11-14T03:21:48.154Z,14.85
2022-11-14T03:24:57.473Z,14.83
2022-11-14T03:28:05.695Z,14.82
2022-11-14T03:31:15.476Z,14.78
2022-11-14T03:34:23.409Z,14.81
2022-11-14T03:37:31.058Z,14.80
2022-11-14T03:40:43.052Z,14.76
2022-11-14T03:43:51.136Z,14.78
2022-11-14T03:46:58.959Z,14.77
2022-11-14T03:50:07.719Z,14.76
2022-11-14T03:53:15.625Z,14.74
2022-11-14T03:56:24.888Z,14.74
2022-11-14T03:59:32.667Z,14.74
2022-11-14T04:02:40.478Z,14.73
2022-11-14T04:05:48.523Z,14.73
2022-11-14T04:08:56.860Z,14.69
2022-11-14T04:12:08.989Z,14.64
2022-11-14T04:15:19.901Z,14.63
2022-11-14T04:18:28.302Z,14.57
2022-11-14T04:21:36.487Z,14.54
2022-11-14T04:24:44.538Z,14.50
2022-11-14T04:27:53.866Z,14.42
2022-11-14T04:31:01.795Z,14.41
2022-11-14T04:34:09.388Z,14.38
2022-11-14T04:37:17.420Z,14.38
2022-11-14T04:40:25.843Z,14.33
2022-11-14T04:43:34.967Z,14.34
2022-11-14T04:46:42.988Z,14.34
2022-11-14T04:49:50.835Z,14.32
2022-11-14T04:52:58.748Z,14.30
2022-11-14T04:56:07.599Z,14.23
2022-11-14T04:59:20.910Z,14.16
2022-11-14T05:02:31.623Z,14.18
2022-11-14T05:05:42.237Z,14.13
2022-11-14T05:08:50.040Z,14.06
2022-11-14T05:11:58.008Z,14.05
2022-11-14T05:15:08.512Z,14.00
2022-11-14T05:18:16.169Z,13.96
2022-11-14T05:21:24.377Z,13.89
2022-11-14T05:24:32.343Z,13.86
2022-11-14T05:27:39.825Z,13.82
2022-11-14T05:30:49.501Z,13.81
2022-11-14T05:33:57.233Z,13.75
2022-11-14T05:37:05.427Z,13.73
2022-11-14T05:40:13.750Z,13.72
2022-11-14T05:43:22.155Z,13.70
2022-11-14T05:46:31.790Z,13.68
2022-11-14T05:49:40.220Z,13.64
2022-11-14T05:52:47.964Z,13.64
2022-11-14T05:55:56.415Z,13.66
2022-11-14T05:59:04.808Z,13.66
2022-11-14T06:02:14.482Z,13.69
2022-11-14T06:05:23.053Z,13.69
2022-11-14T06:08:32.390Z,13.71
2022-11-14T06:11:40.410Z,13.77
2022-11-14T06:14:48.031Z,13.80
2022-11-14T06:17:58.016Z,13.82
2022-11-14T06:21:08.746Z,13.81
2022-11-14T06:24:17.091Z,13.80
2022-11-14T06:27:25.094Z,13.86
2022-11-14T06:30:32.910Z,13.80
2022-11-14T06:33:42.050Z,13.76
2022-11-14T06:36:50.103Z,13.59
2022-11-14T06:39:58.502Z,13.74
2022-11-14T06:43:06.486Z,13.71
2022-11-14T06:46:17.489Z,13.71
2022-11-14T06:49:28.023Z,13.71
2022-11-14T06:52:35.892Z,13.65
2022-11-14T06:55:44.000Z,13.58
2022-11-14T06:58:52.161Z,13.63
2022-11-14T07:01:59.992Z,13.60
2022-11-14T07:05:09.823Z,13.59
2022-11-14T07:08:20.990Z,13.54
2022-11-14T07:11:30.253Z,13.38
2022-11-14T07:14:38.020Z,13.27
2022-11-14T07:17:46.277Z,13.28
2022-11-14T07:21:01.786Z,13.26
2022-11-14T07:24:10.331Z,13.25
2022-11-14T07:27:18.399Z,13.28
2022-11-14T07:30:26.212Z,13.30
2022-11-14T07:33:35.116Z,13.32
2022-11-14T07:36:44.315Z,13.29
2022-11-14T07:39:51.950Z,13.26
2022-11-14T07:43:01.320Z,13.32
2022-11-14T07:46:13.096Z,13.33
2022-11-14T07:49:20.936Z,13.35
2022-11-14T07:52:31.529Z,13.36
2022-11-14T07:55:39.808Z,13.34
2022-11-14T07:58:47.571Z,13.32
2022-11-14T08:01:55.225Z,13.32
2022-11-14T08:05:03.204Z,13.30
2022-11-14T08:08:12.462Z,13.27
2022-11-14T08:11:40.846Z,13.31
2022-11-14T08:14:49.027Z,13.29
2022-11-14T08:17:59.458Z,13.30
2022-11-14T08:21:08.257Z,13.31
2022-11-14T08:24:17.426Z,13.30
2022-11-14T08:27:25.769Z,13.29
2022-11-14T08:30:34.064Z,13.33
2022-11-14T08:33:42.385Z,13.39
2022-11-14T08:36:50.652Z,13.38
2022-11-14T08:39:59.763Z,13.46
2022-11-14T08:43:07.510Z,13.49
2022-11-14T08:46:15.237Z,13.49
2022-11-14T08:49:23.206Z,13.53
2022-11-14T08:52:31.186Z,13.58
2022-11-14T08:55:46.327Z,13.62
2022-11-14T08:58:54.284Z,13.64
2022-11-14T09:02:02.898Z,13.74
2022-11-14T09:05:11.411Z,13.81
2022-11-14T09:08:19.320Z,13.86
2022-11-14T09:11:28.546Z,13.91
2022-11-14T09:14:36.550Z,13.93
2022-11-14T09:17:44.948Z,13.93
2022-11-14T09:20:52.564Z,14.00
2022-11-14T09:24:01.786Z,14.06
2022-11-14T09:27:11.530Z,14.04
2022-11-14T09:30:20.032Z,14.11
2022-11-14T09:33:27.846Z,14.12
2022-11-14T09:36:35.824Z,14.14
2022-11-14T09:39:43.651Z,14.15
2022-11-14T09:43:16.491Z,14.14
2022-11-14T09:46:28.657Z,14.16
2022-11-14T09:49:40.774Z,14.08
2022-11-14T09:52:55.248Z,14.14
2022-11-14T09:56:03.406Z,14.14
2022-11-14T09:59:14.044Z,14.15
2022-11-14T10:02:44.840Z,14.09
2022-11-14T10:06:23.862Z,14.00
2022-11-14T10:09:52.432Z,14.10
2022-11-14T10:13:10.336Z,14.14
2022-11-14T10:16:28.441Z,14.11
2022-11-14T10:19:46.258Z,14.16
2022-11-14T10:23:15.904Z,14.09
2022-11-14T10:26:31.252Z,14.06
2022-11-14T10:30:04.536Z,14.15
2022-11-14T10:33:33.291Z,14.18
2022-11-14T10:36:55.618Z,14.16
2022-11-14T10:40:16.989Z,14.15
2022-11-14T10:43:31.620Z,14.14
2022-11-14T10:46:43.990Z,14.11
2022-11-14T10:49:57.329Z,14.15
2022-11-14T10:53:15.771Z,14.22
2022-11-14T10:56:24.073Z,14.30
2022-11-14T10:59:31.855Z,14.31
2022-11-14T11:02:55.235Z,14.32
2022-11-14T11:06:04.501Z,14.32
2022-11-14T11:09:36.538Z,14.24
2022-11-14T11:12:50.874Z,14.19
2022-11-14T11:16:02.594Z,14.20
2022-11-14T11:19:23.904Z,14.19
2022-11-14T11:22:39.342Z,14.62
2022-11-14T11:25:47.811Z,15.75
2022-11-14T11:29:16.112Z,16.67
2022-11-14T11:32:27.244Z,17.46
2022-11-14T11:35:36.894Z,17.64
2022-11-14T11:38:47.358Z,17.05
2022-11-14T11:42:09.833Z,16.45
2022-11-14T11:45:20.875Z,16.77
2022-11-14T11:48:38.453Z,16.69
2022-11-14T11:51:48.620Z,16.38
2022-11-14T11:55:05.949Z,15.80
2022-11-14T11:58:24.137Z,15.54
2022-11-14T12:01:31.737Z,15.15
2022-11-14T12:04:40.002Z,14.95
2022-11-14T12:07:54.676Z,14.75
2022-11-14T12:11:05.511Z,14.68
2022-11-14T12:15:00.863Z,14.59
2022-11-14T12:19:10.898Z,14.55
2022-11-14T12:22:51.938Z,14.67
2022-11-14T12:26:19.357Z,15.25
2022-11-14T12:30:05.678Z,15.73
2022-11-14T12:33:22.019Z,16.32
2022-11-14T12:36:33.553Z,16.51
2022-11-14T12:39:41.722Z,16.67
2022-11-14T12:42:51.340Z,16.90
2022-11-14T12:46:02.452Z,17.20
2022-11-14T12:49:39.387Z,17.43
2022-11-14T12:52:54.317Z,17.60
2022-11-14T12:56:37.506Z,17.68
2022-11-14T12:59:59.843Z,17.87
2022-11-14T13:03:27.903Z,17.88
2022-11-14T13:06:48.249Z,18.06
2022-11-14T13:10:18.415Z,18.17
2022-11-14T13:13:43.646Z,18.24
2022-11-14T13:17:10.487Z,18.32
2022-11-14T13:20:52.136Z,18.25
2022-11-14T13:24:00.572Z,18.05
2022-11-14T13:27:52.277Z,17.65
2022-11-14T13:31:21.878Z,17.22
2022-11-14T13:34:53.801Z,16.76
2022-11-14T13:39:15.467Z,16.14
2022-11-14T13:42:51.905Z,16.00
2022-11-14T13:46:10.965Z,16.29
2022-11-14T13:49:56.335Z,16.68
2022-11-14T13:53:04.422Z,17.08
2022-11-14T13:56:28.965Z,17.36
2022-11-14T14:00:03.503Z,17.66
2022-11-14T14:03:29.762Z,17.82
2022-11-14T14:06:53.772Z,17.51
2022-11-14T14:10:10.650Z,17.02
2022-11-14T14:13:40.485Z,16.48
2022-11-14T14:16:56.858Z,16.23
2022-11-14T14:20:21.037Z,16.22
2022-11-14T14:23:44.803Z,16.13
2022-11-14T14:27:05.836Z,15.99
2022-11-14T14:30:16.286Z,15.87
2022-11-14T14:33:24.110Z,15.74
2022-11-14T14:36:32.380Z,15.45
2022-11-14T14:39:41.489Z,15.33
2022-11-14T14:42:50.193Z,15.19
2022-11-14T14:45:58.802Z,15.06
2022-11-14T14:49:06.691Z,15.04
2022-11-14T14:52:30.043Z,14.90
2022-11-14T14:55:39.798Z,14.68
2022-11-14T14:58:47.663Z,14.77
2022-11-14T15:01:57.669Z,14.61
2022-11-14T15:05:06.599Z,14.50
2022-11-14T15:08:17.672Z,14.52
2022-11-14T15:11:32.531Z,14.49
2022-11-14T15:14:41.235Z,14.37
2022-11-14T15:17:51.502Z,14.31
2022-11-14T15:21:12.301Z,14.28
2022-11-14T15:24:22.083Z,14.23
2022-11-14T15:27:33.737Z,14.12
2022-11-14T15:30:41.775Z,14.16
2022-11-14T15:34:04.903Z,14.10
2022-11-14T15:37:25.284Z,14.06
2022-11-14T15:40:39.216Z,13.94
2022-11-14T15:43:55.376Z,13.86
2022-11-14T15:47:03.971Z,13.82
2022-11-14T15:50:31.577Z,13.71
2022-11-14T15:53:39.741Z,13.72
2022-11-14T15:56:47.779Z,13.63
2022-11-14T15:59:56.987Z,13.59
2022-11-14T16:03:04.801Z,13.47
2022-11-14T16:06:12.962Z,13.39
2022-11-14T16:09:22.518Z,13.25
2022-11-14T16:12:30.629Z,13.24
2022-11-14T16:15:41.316Z,13.09
2022-11-14T16:18:49.188Z,13.05
2022-11-14T16:22:02.813Z,12.98
2022-11-14T16:25:18.411Z,12.95
2022-11-14T16:28:26.355Z,12.90
2022-11-14T16:31:36.597Z,12.86
2022-11-14T16:34:44.383Z,12.83
2022-11-14T16:37:53.583Z,12.80
2022-11-14T16:41:01.653Z,12.76
2022-11-14T16:44:17.923Z,12.69
2022-11-14T16:47:27.295Z,12.64
2022-11-14T16:50:35.487Z,12.59
2022-11-14T16:53:43.568Z,12.59
2022-11-14T16:56:51.434Z,12.60
2022-11-14T16:59:59.765Z,12.60
2022-11-14T17:03:09.260Z,12.61
2022-11-14T17:06:17.091Z,12.53
2022-11-14T17:09:25.156Z,12.50
2022-11-14T17:12:34.617Z,12.40
2022-11-14T17:15:42.466Z,12.39
2022-11-14T17:18:55.072Z,12.39
2022-11-14T17:22:03.156Z,12.41
2022-11-14T17:25:11.590Z,12.46
2022-11-14T17:28:19.571Z,12.47
2022-11-14T17:31:27.267Z,12.39
2022-11-14T17:34:37.298Z,12.27
2022-11-14T17:37:45.248Z,12.25
2022-11-14T17:40:58.937Z,12.16
2022-11-14T17:44:06.852Z,12.15
2022-11-14T17:47:14.557Z,12.18
2022-11-14T17:50:23.866Z,12.23
2022-11-14T17:53:33.594Z,12.22
2022-11-14T17:56:47.388Z,12.23
2022-11-14T17:59:57.554Z,12.22
2022-11-14T18:03:05.602Z,12.12
2022-11-14T18:06:17.425Z,12.14
2022-11-14T18:09:27.017Z,12.16
2022-11-14T18:12:34.961Z,12.16
2022-11-14T18:15:42.858Z,12.13
2022-11-14T18:18:52.156Z,12.17
2022-11-14T18:22:01.548Z,12.24
2022-11-14T18:25:10.450Z,12.27
2022-11-14T18:28:18.760Z,12.35
2022-11-14T18:31:26.763Z,12.53
2022-11-14T18:34:37.047Z,12.58
2022-11-14T18:37:45.796Z,12.69
2022-11-14T18:40:57.325Z,12.76
2022-11-14T18:44:06.377Z,12.76
2022-11-14T18:47:14.008Z,12.86
2022-11-14T18:50:22.181Z,12.73
2022-11-14T18:53:33.845Z,12.81
2022-11-14T18:56:42.192Z,12.91
2022-11-14T18:59:50.179Z,12.96
2022-11-14T19:03:01.037Z,13.01
2022-11-14T19:06:13.920Z,13.04
2022-11-14T19:09:24.307Z,13.16
2022-11-14T19:12:31.709Z,13.17
2022-11-14T19:15:39.681Z,13.20
2022-11-14T19:18:47.338Z,13.38
2022-11-14T19:21:55.473Z,13.35
2022-11-14T19:25:04.964Z,13.32
2022-11-14T19:28:12.403Z,13.40
2022-11-14T19:31:21.803Z,13.37
2022-11-14T19:34:30.149Z,13.46
2022-11-14T19:37:38.152Z,13.42
2022-11-14T19:40:50.950Z,13.58
2022-11-14T19:44:01.294Z,13.62
2022-11-14T19:47:09.272Z,13.56
2022-11-14T19:50:17.505Z,13.56
2022-11-14T19:53:25.387Z,13.63
2022-11-14T19:56:34.859Z,13.78
2022-11-14T19:59:42.526Z,13.79
2022-11-14T20:02:50.344Z,13.79
2022-11-14T20:05:59.381Z,13.89
2022-11-14T20:09:09.972Z,13.90
2022-11-14T20:12:19.301Z,14.04
2022-11-14T20:15:27.388Z,14.09
2022-11-14T20:18:35.632Z,14.16
2022-11-14T20:21:43.990Z,14.25
2022-11-14T20:24:52.202Z,14.20
2022-11-14T20:28:01.708Z,14.18
2022-11-14T20:31:14.362Z,14.25
2022-11-14T20:34:25.784Z,14.33
2022-11-14T20:37:34.632Z,14.37
2022-11-14T20:40:42.650Z,14.30
2022-11-14T20:43:51.838Z,14.40
2022-11-14T20:46:59.926Z,14.35
2022-11-14T20:50:08.616Z,14.34
2022-11-14T20:53:16.825Z,14.33
2022-11-14T20:56:24.829Z,14.37
2022-11-14T20:59:34.344Z,14.35
2022-11-14T21:02:42.162Z,14.15
2022-11-14T21:05:50.173Z,14.32
2022-11-14T21:08:57.947Z,14.29
2022-11-14T21:12:06.526Z,14.25
2022-11-14T21:15:15.669Z,14.12
2022-11-14T21:18:23.720Z,14.11
2022-11-14T21:21:34.886Z,14.06
2022-11-14T21:24:42.738Z,13.99
2022-11-14T21:27:50.876Z,13.88
2022-11-14T21:31:01.128Z,13.75
2022-11-14T21:34:12.473Z,13.81
2022-11-14T21:37:20.530Z,13.74
2022-11-14T21:40:28.786Z,13.73
2022-11-14T21:43:37.237Z,13.67
2022-11-14T21:46:48.812Z,13.66
2022-11-14T21:50:00.925Z,13.72
2022-11-14T21:53:16.228Z,13.69
2022-11-14T21:56:27.780Z,13.61
2022-11-14T21:59:35.971Z,13.47
2022-11-14T22:03:02.517Z,13.59
2022-11-14T22:06:10.781Z,13.65
2022-11-14T22:09:18.830Z,13.65
2022-11-14T22:12:26.786Z,13.61
2022-11-14T22:15:37.233Z,13.61
2022-11-14T22:18:48.960Z,13.56
2022-11-14T22:21:56.851Z,13.46
2022-11-14T22:25:05.242Z,13.54
2022-11-14T22:28:13.277Z,13.54
2022-11-14T22:31:23.945Z,13.56
2022-11-14T22:34:33.569Z,13.56
2022-11-14T22:37:41.738Z,13.49
2022-11-14T22:40:49.537Z,13.58
2022-11-14T22:43:58.854Z,13.46
2022-11-14T22:47:06.765Z,13.49
2022-11-14T22:50:16.051Z,13.51
2022-11-14T22:53:23.749Z,13.42
2022-11-14T22:56:32.406Z,13.49
2022-11-14T22:59:40.198Z,13.43
2022-11-14T23:02:48.024Z,13.44
2022-11-14T23:05:57.648Z,13.51
2022-11-14T23:09:06.720Z,13.50
2022-11-14T23:12:15.882Z,13.56
2022-11-14T23:15:24.326Z,13.52
2022-11-14T23:18:32.825Z,13.56
2022-11-14T23:21:42.303Z,13.48
2022-11-14T23:24:50.262Z,13.50
2022-11-14T23:28:00.354Z,13.51
2022-11-14T23:31:08.929Z,13.51
2022-11-14T23:34:17.560Z,13.54
2022-11-14T23:37:27.504Z,13.49
2022-11-14T23:40:35.494Z,13.54
2022-11-14T23:43:43.739Z,13.58
2022-11-14T23:46:52.029Z,13.59
2022-11-14T23:49:59.787Z,13.60
2022-11-14T23:53:09.469Z,13.63
2022-11-14T23:56:17.913Z,13.65
2022-11-14T23:59:26.262Z,13.57
